找回密码

火车采集器软件交流官方论坛

搜索
火车采集器V9版免费下载火车浏览器 - 可视采集,万能群发,全自动脚本工具
全局置顶 隐藏置顶帖 预览 【重要通知】可视化采集软件火车浏览器6.0全新发布! 新人帖 digest baixiaoming 2016-10-28 41858 qwaszx18 2016-11-27 00:51
全局置顶 隐藏置顶帖 预览 【每周播报】火车采集器V9.2发布 (2016-6-2) digest lsd2015 2016-6-2 819458 dcm007 2016-10-8 17:12
全局置顶 隐藏置顶帖 预览 火车采集器V7V8版本无法登录的解决办法 digest lsd2015 2016-5-14 82641 小念 2016-11-19 10:03
全局置顶 隐藏置顶帖 预览 邀请您关注大数据观察微信公众号! attach_img digest lsd2015 2016-4-7 01464 lsd2015 2016-4-7 13:29
全局置顶 隐藏置顶帖 预览 火车采集器v9视频教程持续更新中  ...23456..61 kuhabe 2016-1-9 603114379 黑炭 2017-1-7 14:22
全局置顶 隐藏置顶帖 预览 网页抓取工具:火车采集器V9旗舰版伪原创插件免费下载 attachment digest  ...23456..51 lsd2015 2015-10-28 502126736 3vsheji 前天 09:36
全局置顶 隐藏置顶帖 预览 火车采集器V9版最新帮助手册下载 attachment digest  ...23456..115 lsd2015 2015-10-21 1146115220 caesar_wind 前天 08:41
全局置顶 隐藏置顶帖 预览 致火车采集器新手~~~~~~~~ attach_img  ...23456..12 leejunji 2013-3-7 119136396 jean890915 2016-11-3 11:09
全局置顶 隐藏置顶帖 预览 火车采集器2000人超级大群开始加人了以及申请条件 attach_img  ...23456..11 leejunji 2013-1-14 10466094 bestt008 2016-10-9 12:44
分类置顶 隐藏置顶帖 预览 官方v7版使用视频教程更新中... attach_img  ...23456..25 流浪侠女 2012-6-6 246152017 wenwen1314 2015-1-20 09:56
      
    自动化脚本工具火车浏览器,可视化采集,模拟填表,自动打码
悬赏 预览 求图片,视频素材资源 新人帖 - [悬赏 1 节火车车厢] 芦苇 2017-1-16 4131 芦苇 6 天前
悬赏 预览 rmb求icms免登陆 新人帖 - [悬赏 1 节火车车厢] liulshao 2017-1-16 084 liulshao 2017-1-16 21:38
悬赏 预览 火车头采集发布时网站无法打开 新人帖 - [悬赏 1 节火车车厢] 团贷网谢朋 2017-1-13 0118 团贷网谢朋 2017-1-13 20:57
悬赏 预览 rmb求采集淘宝达人手机端单个达人列表和内容文章的规则 - [悬赏 1 节火车车厢] bayubin 2017-1-10 1139 hrj3251 2017-1-11 12:27
悬赏 预览 付费求电影站发布接口 新人帖 - [悬赏 1 节火车车厢] xyh634 2016-12-25 7204 xyh634 2016-12-28 11:27
悬赏 预览 采集内容把图片下载到本地.... - [已解决] attach_img  ...2 qwlove778 2016-12-22 13326 qwlove778 2017-1-5 11:52
悬赏 预览 防采集的网站求帮忙采集数据 - [悬赏 1 节火车车厢] ellenhe 2016-12-18 4284 wx_uz44u3Sl 2017-1-13 21:06
悬赏 预览 付费求解决美国亚马逊采集封IP的办法 新人帖 - [悬赏 1 节火车车厢] ptxypl 2016-12-13 0164 ptxypl 2016-12-13 14:55
悬赏 预览 帮助过滤采集网页内容 - [悬赏 1 节火车车厢] zhengxs 2016-12-10 2155 zhjm1223 2016-12-18 08:44
悬赏 预览 火车头采集电影站并发布到我的网站 新人帖 - [悬赏 1 节火车车厢] Mencius_In3sP 2016-12-5 1277 luring 2016-12-6 12:25
悬赏 预览 知网采集。 - [悬赏 1 节火车车厢] qwaszx18 2016-11-27 2200 wx_N1iVXXy3 2017-1-5 11:20
悬赏 预览 求助帮忙写个采集规则! 新人帖 - [悬赏 1 节火车车厢] 这是坏坏哒 2016-10-26 1139 mikewoo 2016-12-12 18:58
悬赏 预览 WordPress插件开发 价格面议 - [悬赏 5 节火车车厢] lwtop123 2016-10-11 0329 lwtop123 2016-10-11 16:31
悬赏 预览 采集内容中如何去掉最后一张图片 - [悬赏 1 节火车车厢] Kc.StarX 2016-10-8 2320 mikewoo 2016-12-12 19:05
悬赏 预览 批量采集在线QQ号 - [悬赏 1 节火车车厢] hkc888 2016-10-4 1461 a1003346968 2016-10-5 03:05
悬赏 预览 求采集女性用户微信号码 - [悬赏 1 节火车车厢] hkc888 2016-10-3 0329 hkc888 2016-10-3 19:26
悬赏 预览 求PHPYUN人才系统采集 - [悬赏 1 节火车车厢] xinchaoshow 2016-10-1 2271 make4127 2016-11-23 13:39
悬赏 预览 现金200-500寻求天猫店铺基本信息数据,规则或代采 新人帖 - [悬赏 1 节火车车厢] attach_img tenemail 2016-9-25 0472 tenemail 2016-9-25 12:34
悬赏 预览 现金悬赏 台湾Giga Circle 自动采集发布文章 需转换繁体 - [悬赏 1 节火车车厢] xinyushua 2016-9-22 2399 zhjm1223 2016-9-24 15:34
悬赏 预览 求写个发布模块 - [悬赏 5 节火车车厢] attachment xmenoo 2016-9-7 5439 bruce_lee 2016-9-28 09:09
悬赏 预览 迅雷地址转换 新人帖 - [悬赏 5 节火车车厢] a303575576 2016-8-31 0183 a303575576 2016-8-31 11:51
悬赏 预览 BMB悬赏定制论坛信息采集规则 新人帖 - [悬赏 1 节火车车厢] sinwandcosj 2016-8-22 1300 luring 2016-8-27 10:11
悬赏 预览 RMB找人写个采集规则 - [悬赏 1 节火车车厢] bankrob 2016-8-21 4435 冷若寒冰 2016-10-27 10:17
悬赏 预览 请问各位大侠这个网站如何获取内容? 新人帖 - [悬赏 1 节火车车厢] zj307297908 2016-7-31 2284 wx_uz44u3Sl 2017-1-13 21:07
悬赏 预览 付费求一个火车头浏览器或者采集器的规则 - [悬赏 5 节火车车厢] robogame 2016-7-15 1454 ShineGoo 2016-7-18 23:58
悬赏 预览 最近几天没什么事, 免费帮朋友写规则,弘扬共享精神 - [悬赏 1 节火车车厢] jueshihaogongzi 2016-6-29 0569 jueshihaogongzi 2016-6-29 11:44
悬赏 预览 求助:采集的图片alt里面的网址怎么替换或者屏蔽掉 新人帖 - [悬赏 1 节火车车厢] mrmmzz 2016-6-25 1284 ahuihome 2016-7-4 21:18
悬赏 预览 火车头v9 如何采集文章页的网址 新人帖 - [悬赏 1 节火车车厢] attach_img hg126 2016-6-19 6447 ahuihome 2016-6-26 17:41
悬赏 预览 采集搜狗微信,请过验证码办法 新人帖 - [悬赏 1 节火车车厢] hui52002 2016-6-10 51107 dongzhiyu 2016-12-28 16:52
悬赏 预览 现金付费求购百度排名采集规则 新人帖 - [悬赏 1 节火车车厢] ml1607735 2016-5-12 1910 peiluocheng 2016-5-19 15:36
悬赏 预览 请教这个table表怎么用Xpath采集 - [悬赏 1 节火车车厢] hongtong 2016-4-28 3642 303718 2016-4-30 07:57
悬赏 预览 500现金求两个采集规则 - [悬赏 1 节火车车厢] wongvio 2016-4-27 5849 jaocaiji 2016-12-19 13:31
悬赏 预览 求人帮忙制作淘宝客链接转换工具 - [悬赏 1 节火车车厢] qzwsa 2016-4-19 3773 zhjm1223 2016-11-3 18:16
悬赏 预览 火车头计划管理里面的任务列表看不全是怎么回事 - [悬赏 1 节火车车厢] attach_img xufei_007 2016-3-9 01081 xufei_007 2016-3-9 23:34
悬赏 预览 3000元起 悬赏C#文章内容关键字提取插件 - [悬赏 1 节火车车厢] attach_img y2kzero 2016-2-18 71199 g13721792528 2016-10-28 13:51
悬赏 预览 100元求人写验证码识别插件 新人帖 - [悬赏 1 节火车车厢] peiluocheng 2016-2-15 2963 x0398 2016-2-25 23:52
悬赏 预览 200元求此网页分页列表 - [已解决] wolf109 2016-2-5 41250 wx_ugC00jh3 2016-2-25 16:39
悬赏 预览 付费求一个post采集规则 新人帖 - [悬赏 1 节火车车厢] 雪峰 2016-1-24 0591 雪峰 2016-1-24 01:36
悬赏 预览 求豆瓣IMDB评分分页采集规则! - [已解决] attach_img ipqbskcel 2016-1-11 21088 lbjyuer 2016-2-11 15:35
悬赏 预览 【悬赏】【有偿服务】求一个微信采集规则 - [悬赏 1 节火车车厢] xinghun2222 2016-1-4 51323 xinghun2222 2016-3-10 20:59
温馨提示:建议您联系官方定制服务,通过官方支付方式完成支付。您与其他非官方账号发生的交易,我方概不承担责任。网络有风险,交易需谨慎

QQ| 小黑屋|手机版|Archiver| 火车采集器官方站  

A
安全联盟

Copyright © 2001-2013 Comsenz Inc.  Template by Comeings! All Rights Reserved.

Powered by Discuz! X3.2( 皖ICP备06000549 )

返回顶部 返回版块